createdAt,value
2019-01-26T00:02:52.211Z,41.30
2019-01-26T00:07:57.785Z,38.10
2019-01-26T00:13:05.834Z,36.20
2019-01-26T00:18:10.819Z,48.20
2019-01-26T00:23:16.016Z,43.60
2019-01-26T00:28:21.028Z,31.90
2019-01-26T00:33:26.550Z,30.57
2019-01-26T00:38:32.310Z,32.40
2019-01-26T00:43:37.563Z,27.97
2019-01-26T00:48:44.152Z,30.53
2019-01-26T00:53:49.169Z,31.57
2019-01-26T00:58:54.174Z,31.40
2019-01-26T01:03:59.134Z,29.47
2019-01-26T01:09:06.121Z,28.60
2019-01-26T01:14:12.990Z,31.43
2019-01-26T01:19:17.984Z,33.53
2019-01-26T01:24:22.966Z,32.03
2019-01-26T01:29:27.947Z,32.83
2019-01-26T01:34:32.966Z,37.93
2019-01-26T01:39:38.287Z,29.13
2019-01-26T01:44:43.260Z,28.27
2019-01-26T01:49:48.272Z,37.77
2019-01-26T01:54:53.275Z,36.77
2019-01-26T01:59:58.259Z,44.63
2019-01-26T02:05:03.243Z,35.87
2019-01-26T02:10:10.718Z,32.70
2019-01-26T02:15:16.052Z,23.70
2019-01-26T02:20:23.143Z,25.23
2019-01-26T02:25:28.142Z,25.70
2019-01-26T02:30:33.172Z,24.10
2019-01-26T02:35:38.177Z,27.73
2019-01-26T02:40:43.195Z,19.20
2019-01-26T02:45:48.184Z,18.43
2019-01-26T02:50:53.209Z,17.77
2019-01-26T02:55:58.196Z,18.77
2019-01-26T03:01:03.207Z,18.00
2019-01-26T03:06:08.224Z,20.77
2019-01-26T03:11:13.194Z,18.43
2019-01-26T03:16:18.258Z,17.80
2019-01-26T03:21:23.260Z,15.87
2019-01-26T03:26:28.358Z,14.73
2019-01-26T03:31:34.747Z,17.23
2019-01-26T03:36:39.687Z,17.73
2019-01-26T03:41:44.675Z,12.83
2019-01-26T03:46:49.673Z,12.47
2019-01-26T03:51:54.675Z,14.57
2019-01-26T03:56:59.655Z,19.00
2019-01-26T04:02:04.655Z,21.70
2019-01-26T04:07:09.649Z,34.77
2019-01-26T04:12:14.639Z,31.50
2019-01-26T04:17:21.925Z,28.77
2019-01-26T04:22:26.396Z,27.97
2019-01-26T04:27:31.399Z,30.43
2019-01-26T04:32:36.421Z,23.97
2019-01-26T04:37:41.461Z,24.77
2019-01-26T04:42:48.306Z,26.73
2019-01-26T04:47:53.280Z,24.07
2019-01-26T04:52:58.274Z,25.93
2019-01-26T04:58:05.437Z,25.43
2019-01-26T05:03:11.537Z,28.53
2019-01-26T05:08:16.535Z,29.33
2019-01-26T05:13:21.561Z,28.80
2019-01-26T05:18:26.736Z,27.97
2019-01-26T05:23:31.722Z,27.87
2019-01-26T05:28:36.774Z,28.17
2019-01-26T05:38:52.348Z,25.83
2019-01-26T05:43:57.346Z,29.07
2019-01-26T05:49:02.324Z,28.00
2019-01-26T05:54:07.296Z,26.50
2019-01-26T05:59:12.282Z,29.60
2019-01-26T06:04:17.409Z,27.10
2019-01-26T06:09:22.403Z,39.00
2019-01-26T06:14:27.422Z,57.20
2019-01-26T06:19:32.430Z,96.10
2019-01-26T06:24:37.438Z,93.33
2019-01-26T06:29:43.600Z,132.00
2019-01-26T06:34:48.620Z,147.70
2019-01-26T06:39:53.642Z,130.83
2019-01-26T06:44:58.686Z,133.33
2019-01-26T06:50:04.055Z,144.13
2019-01-26T06:55:10.574Z,136.83
2019-01-26T07:00:18.039Z,150.77
2019-01-26T07:05:30.547Z,132.33
2019-01-26T07:10:36.631Z,141.50
2019-01-26T07:15:42.955Z,128.20
2019-01-26T07:20:47.939Z,126.90
2019-01-26T07:25:53.350Z,127.20
2019-01-26T07:30:58.344Z,123.77
2019-01-26T07:36:03.356Z,127.87
2019-01-26T07:41:08.409Z,112.97
2019-01-26T07:46:13.405Z,101.13
2019-01-26T07:51:18.436Z,168.73
2019-01-26T07:56:23.438Z,120.00
2019-01-26T08:01:28.455Z,86.90
2019-01-26T08:06:33.448Z,100.83
2019-01-26T08:11:38.426Z,107.97
2019-01-26T08:16:43.443Z,115.20
2019-01-26T08:21:48.849Z,102.97
2019-01-26T08:26:53.839Z,131.23
2019-01-26T08:31:58.828Z,97.50
2019-01-26T08:37:03.864Z,97.67
2019-01-26T08:42:08.840Z,93.63
2019-01-26T08:47:13.851Z,87.07
2019-01-26T08:52:18.871Z,103.37
2019-01-26T08:57:23.943Z,92.57
2019-01-26T09:02:46.757Z,79.70
2019-01-26T09:07:51.742Z,87.30
2019-01-26T09:12:56.739Z,98.77
2019-01-26T09:18:01.790Z,72.10
2019-01-26T09:23:07.094Z,73.27
2019-01-26T09:28:12.288Z,66.17
2019-01-26T09:33:17.322Z,102.13
2019-01-26T09:38:22.351Z,73.43
2019-01-26T09:43:27.360Z,68.00
2019-01-26T09:48:32.369Z,76.40
2019-01-26T09:53:37.395Z,70.17
2019-01-26T09:58:42.687Z,71.47
2019-01-26T10:03:47.680Z,74.27
2019-01-26T10:08:52.752Z,69.60
2019-01-26T10:13:57.746Z,71.97
2019-01-26T10:19:02.808Z,81.23
2019-01-26T10:24:08.309Z,88.60
2019-01-26T10:29:13.494Z,99.43
2019-01-26T10:34:18.479Z,89.80
2019-01-26T10:39:23.467Z,76.43
2019-01-26T10:44:30.274Z,63.33
2019-01-26T10:49:35.271Z,76.73
2019-01-26T10:54:40.392Z,64.77
2019-01-26T10:59:45.660Z,56.03
2019-01-26T11:04:50.654Z,55.80
2019-01-26T11:09:55.830Z,59.50
2019-01-26T11:15:01.041Z,57.37
2019-01-26T11:20:07.296Z,82.63
2019-01-26T11:25:12.486Z,49.87
2019-01-26T11:30:18.553Z,53.70
2019-01-26T11:35:23.583Z,53.60
2019-01-26T11:40:28.582Z,51.10
2019-01-26T11:46:07.872Z,46.40
2019-01-26T11:51:23.643Z,43.13
2019-01-26T11:56:39.538Z,46.23
2019-01-26T12:01:54.613Z,48.03
2019-01-26T12:07:05.045Z,45.67
2019-01-26T12:12:11.180Z,50.27
2019-01-26T12:17:16.190Z,46.53
2019-01-26T12:22:21.241Z,44.50
2019-01-26T12:27:26.238Z,45.57
2019-01-26T12:32:32.536Z,44.30
2019-01-26T12:37:37.621Z,44.63
2019-01-26T12:42:45.191Z,55.73
2019-01-26T12:47:50.101Z,58.90
2019-01-26T12:52:55.093Z,56.33
2019-01-26T12:58:00.091Z,41.37
2019-01-26T13:03:06.014Z,78.10
2019-01-26T13:08:11.061Z,49.40
2019-01-26T13:13:16.059Z,52.60
2019-01-26T13:18:21.109Z,44.23
2019-01-26T13:23:26.094Z,50.47
2019-01-26T13:28:31.126Z,47.87
2019-01-26T13:33:36.119Z,51.23
2019-01-26T13:38:41.253Z,61.50
2019-01-26T13:43:46.454Z,60.70
2019-01-26T13:48:51.435Z,56.50
2019-01-26T13:53:56.425Z,56.83
2019-01-26T13:59:01.410Z,52.73
2019-01-26T14:04:06.476Z,49.50
2019-01-26T14:09:13.550Z,49.87
2019-01-26T14:14:18.550Z,48.67
2019-01-26T14:19:23.538Z,55.67
2019-01-26T14:24:28.651Z,46.43
2019-01-26T14:29:33.633Z,46.67
2019-01-26T14:34:38.655Z,47.33
2019-01-26T14:39:43.631Z,47.30
2019-01-26T14:44:48.613Z,46.60
2019-01-26T14:49:58.411Z,45.03
2019-01-26T14:55:00.270Z,51.43
2019-01-26T15:00:08.184Z,55.43
2019-01-26T15:05:13.172Z,70.13
2019-01-26T15:10:18.477Z,52.73
2019-01-26T15:15:23.466Z,41.60
2019-01-26T15:20:31.247Z,44.63
2019-01-26T15:25:36.687Z,57.70
2019-01-26T15:30:43.632Z,47.60
2019-01-26T15:35:48.636Z,57.17
2019-01-26T15:40:53.702Z,48.47
2019-01-26T15:45:58.701Z,48.57
2019-01-26T15:51:03.751Z,41.77
2019-01-26T15:56:08.758Z,40.30
2019-01-26T16:01:13.817Z,49.60
2019-01-26T16:06:18.793Z,39.73
2019-01-26T16:11:23.791Z,44.23
2019-01-26T16:16:28.821Z,46.73
2019-01-26T16:21:33.852Z,48.13
2019-01-26T16:26:38.865Z,49.13
2019-01-26T16:32:03.008Z,62.17
2019-01-26T16:37:08.025Z,72.13
2019-01-26T16:42:13.121Z,53.60
2019-01-26T16:47:18.113Z,66.37
2019-01-26T16:52:23.149Z,61.17
2019-01-26T16:57:28.158Z,64.40
2019-01-26T17:02:33.168Z,70.60
2019-01-26T17:07:38.194Z,60.27
2019-01-26T17:12:45.014Z,71.47
2019-01-26T17:17:50.049Z,75.20
2019-01-26T17:22:56.286Z,61.43
2019-01-26T17:28:01.293Z,54.87
2019-01-26T17:33:07.979Z,63.93
2019-01-26T17:38:12.965Z,66.97
2019-01-26T17:43:17.970Z,60.30
2019-01-26T17:48:22.997Z,62.73
2019-01-26T17:53:28.016Z,56.67
2019-01-26T17:58:33.027Z,61.77
2019-01-26T18:03:38.040Z,66.07
2019-01-26T18:08:43.040Z,75.20
2019-01-26T18:13:48.059Z,84.40
2019-01-26T18:18:53.076Z,72.20
2019-01-26T18:23:58.148Z,81.43
2019-01-26T18:29:03.204Z,83.13
2019-01-26T18:34:08.188Z,86.23
2019-01-26T18:39:15.029Z,103.87
2019-01-26T18:44:20.036Z,90.27
2019-01-26T18:49:25.088Z,87.50
2019-01-26T18:54:30.114Z,80.17
2019-01-26T18:59:35.476Z,104.70
2019-01-26T19:04:47.579Z,105.33
2019-01-26T19:09:52.598Z,106.43
2019-01-26T19:14:57.609Z,99.80
2019-01-26T19:20:02.939Z,93.70
2019-01-26T19:25:10.477Z,109.60
2019-01-26T19:30:17.840Z,102.60
2019-01-26T19:35:22.877Z,103.53
2019-01-26T19:40:28.220Z,104.80
2019-01-26T19:45:33.335Z,134.33
2019-01-26T19:50:38.348Z,128.97
2019-01-26T19:55:43.389Z,103.10
2019-01-26T20:00:48.542Z,110.77
2019-01-26T20:05:53.613Z,107.57
2019-01-26T20:10:59.193Z,127.67
2019-01-26T20:16:04.335Z,86.63
2019-01-26T20:21:09.735Z,96.13
2019-01-26T20:26:14.761Z,123.47
2019-01-26T20:31:20.174Z,84.93
2019-01-26T20:36:25.198Z,96.00
2019-01-26T20:41:30.225Z,105.23
2019-01-26T20:46:35.254Z,81.53
2019-01-26T20:51:40.258Z,76.07
2019-01-26T20:56:45.270Z,84.80
2019-01-26T21:01:50.269Z,87.00
2019-01-26T21:06:55.296Z,90.13
2019-01-26T21:12:00.298Z,110.90
2019-01-26T21:17:05.320Z,74.40
2019-01-26T21:22:10.377Z,73.57
2019-01-26T21:27:15.414Z,188.27
2019-01-26T21:32:20.485Z,76.67
2019-01-26T21:37:25.507Z,72.37
2019-01-26T21:42:30.585Z,76.07
2019-01-26T21:47:35.598Z,69.57
2019-01-26T21:52:41.015Z,75.37
2019-01-26T21:57:46.446Z,65.80
2019-01-26T22:02:51.756Z,60.57
2019-01-26T22:07:56.788Z,66.27
2019-01-26T22:13:03.302Z,79.90
2019-01-26T22:18:08.404Z,55.97
2019-01-26T22:23:13.761Z,51.93
2019-01-26T22:28:18.770Z,59.63
2019-01-26T22:33:23.810Z,51.47
2019-01-26T22:38:28.897Z,51.00
2019-01-26T22:43:34.880Z,83.40
2019-01-26T22:48:39.823Z,57.93
2019-01-26T22:53:44.996Z,63.53
2019-01-26T22:58:50.009Z,67.80
2019-01-26T23:04:54.257Z,75.70
2019-01-26T23:10:45.198Z,73.03
2019-01-26T23:16:33.983Z,97.33
2019-01-26T23:22:05.539Z,77.17
2019-01-26T23:27:39.353Z,78.30
2019-01-26T23:32:44.404Z,102.57
2019-01-26T23:37:50.528Z,85.33
2019-01-26T23:42:55.582Z,82.23
2019-01-26T23:48:00.589Z,90.43
2019-01-26T23:53:05.831Z,96.63
2019-01-26T23:58:10.837Z,104.30
